sensor_id;sensor_type;location;lat;lon;timestamp;temperature;humidity
16076;DHT22;8142;48.242;11.644;2023-01-24T00:01:22;2.30;99.90
16076;DHT22;8142;48.242;11.644;2023-01-24T00:03:48;2.30;99.90
16076;DHT22;8142;48.242;11.644;2023-01-24T00:06:15;2.30;99.90
16076;DHT22;8142;48.242;11.644;2023-01-24T00:08:41;2.30;99.90
16076;DHT22;8142;48.242;11.644;2023-01-24T00:11:10;2.30;99.90
16076;DHT22;8142;48.242;11.644;2023-01-24T00:13:37;2.30;99.90
16076;DHT22;8142;48.242;11.644;2023-01-24T00:16:07;2.30;99.90
16076;DHT22;8142;48.242;11.644;2023-01-24T00:18:33;2.30;99.90
16076;DHT22;8142;48.242;11.644;2023-01-24T00:21:04;2.20;99.90
16076;DHT22;8142;48.242;11.644;2023-01-24T00:23:43;2.20;99.90
16076;DHT22;8142;48.242;11.644;2023-01-24T00:26:10;2.20;99.90
16076;DHT22;8142;48.242;11.644;2023-01-24T00:28:36;2.20;99.90
16076;DHT22;8142;48.242;11.644;2023-01-24T00:31:03;2.20;99.90
16076;DHT22;8142;48.242;11.644;2023-01-24T00:33:30;2.20;99.90
16076;DHT22;8142;48.242;11.644;2023-01-24T00:35:56;2.10;99.90
16076;DHT22;8142;48.242;11.644;2023-01-24T00:38:23;2.10;99.90
16076;DHT22;8142;48.242;11.644;2023-01-24T00:40:49;2.10;99.90
16076;DHT22;8142;48.242;11.644;2023-01-24T00:43:22;2.20;99.90
16076;DHT22;8142;48.242;11.644;2023-01-24T00:45:48;2.20;99.90
16076;DHT22;8142;48.242;11.644;2023-01-24T00:48:17;2.20;99.90
16076;DHT22;8142;48.242;11.644;2023-01-24T00:50:46;2.10;99.90
16076;DHT22;8142;48.242;11.644;2023-01-24T00:53:12;2.10;99.90
16076;DHT22;8142;48.242;11.644;2023-01-24T00:55:43;2.10;99.90
16076;DHT22;8142;48.242;11.644;2023-01-24T00:58:10;2.10;99.90
16076;DHT22;8142;48.242;11.644;2023-01-24T01:00:37;2.10;99.90
16076;DHT22;8142;48.242;11.644;2023-01-24T01:03:06;2.10;99.90
16076;DHT22;8142;48.242;11.644;2023-01-24T01:05:32;2.10;99.90
16076;DHT22;8142;48.242;11.644;2023-01-24T01:07:58;2.00;99.90
16076;DHT22;8142;48.242;11.644;2023-01-24T01:10:24;2.00;99.90
16076;DHT22;8142;48.242;11.644;2023-01-24T01:12:50;2.00;99.90
16076;DHT22;8142;48.242;11.644;2023-01-24T01:15:19;2.00;99.90
16076;DHT22;8142;48.242;11.644;2023-01-24T01:17:45;1.90;99.90
16076;DHT22;8142;48.242;11.644;2023-01-24T01:20:11;2.00;99.90
16076;DHT22;8142;48.242;11.644;2023-01-24T01:22:37;1.90;99.90
16076;DHT22;8142;48.242;11.644;2023-01-24T01:25:04;1.90;99.90
16076;DHT22;8142;48.242;11.644;2023-01-24T01:27:30;1.90;99.90
16076;DHT22;8142;48.242;11.644;2023-01-24T01:29:56;1.90;99.90
16076;DHT22;8142;48.242;11.644;2023-01-24T01:32:22;1.90;99.90
16076;DHT22;8142;48.242;11.644;2023-01-24T01:34:48;1.90;99.90
16076;DHT22;8142;48.242;11.644;2023-01-24T01:37:14;1.90;99.90
16076;DHT22;8142;48.242;11.644;2023-01-24T01:39:40;1.90;99.90
16076;DHT22;8142;48.242;11.644;2023-01-24T01:42:06;1.90;99.90
16076;DHT22;8142;48.242;11.644;2023-01-24T01:44:32;2.00;99.90
16076;DHT22;8142;48.242;11.644;2023-01-24T01:50:05;1.90;99.90
16076;DHT22;8142;48.242;11.644;2023-01-24T01:52:37;2.00;99.90
16076;DHT22;8142;48.242;11.644;2023-01-24T01:55:16;1.90;99.90
16076;DHT22;8142;48.242;11.644;2023-01-24T01:57:45;1.90;99.90
16076;DHT22;8142;48.242;11.644;2023-01-24T02:00:19;1.90;99.90
16076;DHT22;8142;48.242;11.644;2023-01-24T02:02:50;1.90;99.90
16076;DHT22;8142;48.242;11.644;2023-01-24T02:05:20;1.90;99.90
16076;DHT22;8142;48.242;11.644;2023-01-24T02:07:57;1.90;99.90
16076;DHT22;8142;48.242;11.644;2023-01-24T02:10:25;1.90;99.90
16076;DHT22;8142;48.242;11.644;2023-01-24T02:13:13;2.00;99.90
16076;DHT22;8142;48.242;11.644;2023-01-24T02:15:39;2.00;99.90
16076;DHT22;8142;48.242;11.644;2023-01-24T02:18:25;2.00;99.90
16076;DHT22;8142;48.242;11.644;2023-01-24T02:20:51;2.00;99.90
16076;DHT22;8142;48.242;11.644;2023-01-24T02:26:21;1.90;99.90
16076;DHT22;8142;48.242;11.644;2023-01-24T02:29:12;2.00;99.90
16076;DHT22;8142;48.242;11.644;2023-01-24T02:32:02;1.90;99.90
16076;DHT22;8142;48.242;11.644;2023-01-24T02:34:31;1.90;99.90
16076;DHT22;8142;48.242;11.644;2023-01-24T02:36:59;1.90;99.90
16076;DHT22;8142;48.242;11.644;2023-01-24T02:42:07;1.90;99.90
16076;DHT22;8142;48.242;11.644;2023-01-24T02:44:40;1.90;99.90
16076;DHT22;8142;48.242;11.644;2023-01-24T02:47:08;2.00;99.90
16076;DHT22;8142;48.242;11.644;2023-01-24T02:49:34;2.00;99.90
16076;DHT22;8142;48.242;11.644;2023-01-24T02:52:01;2.00;99.90
16076;DHT22;8142;48.242;11.644;2023-01-24T02:54:45;2.00;99.90
16076;DHT22;8142;48.242;11.644;2023-01-24T02:57:12;2.00;99.90
16076;DHT22;8142;48.242;11.644;2023-01-24T02:59:56;2.00;99.90
16076;DHT22;8142;48.242;11.644;2023-01-24T03:02:22;2.00;99.90
16076;DHT22;8142;48.242;11.644;2023-01-24T03:04:48;2.00;99.90
16076;DHT22;8142;48.242;11.644;2023-01-24T03:07:15;2.00;99.90
16076;DHT22;8142;48.242;11.644;2023-01-24T03:09:42;2.00;99.90
16076;DHT22;8142;48.242;11.644;2023-01-24T03:12:14;2.10;99.90
16076;DHT22;8142;48.242;11.644;2023-01-24T03:14:59;2.00;99.90
16076;DHT22;8142;48.242;11.644;2023-01-24T03:17:44;2.10;99.90
16076;DHT22;8142;48.242;11.644;2023-01-24T03:20:29;2.00;99.90
16076;DHT22;8142;48.242;11.644;2023-01-24T03:23:14;2.00;99.90
16076;DHT22;8142;48.242;11.644;2023-01-24T03:25:59;2.00;99.90
16076;DHT22;8142;48.242;11.644;2023-01-24T03:28:44;2.00;99.90
16076;DHT22;8142;48.242;11.644;2023-01-24T03:31:29;2.00;99.90
16076;DHT22;8142;48.242;11.644;2023-01-24T03:34:13;2.00;99.90
16076;DHT22;8142;48.242;11.644;2023-01-24T03:37:12;2.00;99.90
16076;DHT22;8142;48.242;11.644;2023-01-24T03:39:41;2.00;99.90
16076;DHT22;8142;48.242;11.644;2023-01-24T03:42:26;2.00;99.90
16076;DHT22;8142;48.242;11.644;2023-01-24T03:44:53;2.00;99.90
16076;DHT22;8142;48.242;11.644;2023-01-24T03:47:19;2.00;99.90
16076;DHT22;8142;48.242;11.644;2023-01-24T03:49:45;2.00;99.90
16076;DHT22;8142;48.242;11.644;2023-01-24T03:52:30;2.00;99.90
16076;DHT22;8142;48.242;11.644;2023-01-24T03:54:58;2.00;99.90
16076;DHT22;8142;48.242;11.644;2023-01-24T03:57:25;2.00;99.90
16076;DHT22;8142;48.242;11.644;2023-01-24T03:59:51;2.00;99.90
16076;DHT22;8142;48.242;11.644;2023-01-24T04:02:18;2.00;99.90
16076;DHT22;8142;48.242;11.644;2023-01-24T04:04:44;2.00;99.90
16076;DHT22;8142;48.242;11.644;2023-01-24T04:07:30;2.00;99.90
16076;DHT22;8142;48.242;11.644;2023-01-24T04:09:56;1.90;99.90
16076;DHT22;8142;48.242;11.644;2023-01-24T04:12:25;1.80;99.90
16076;DHT22;8142;48.242;11.644;2023-01-24T04:14:52;1.60;99.90
16076;DHT22;8142;48.242;11.644;2023-01-24T04:17:18;1.60;99.90
16076;DHT22;8142;48.242;11.644;2023-01-24T04:19:44;1.50;99.90
16076;DHT22;8142;48.242;11.644;2023-01-24T04:22:10;1.40;99.90
16076;DHT22;8142;48.242;11.644;2023-01-24T04:24:36;1.30;99.90
16076;DHT22;8142;48.242;11.644;2023-01-24T04:27:02;1.20;99.90
16076;DHT22;8142;48.242;11.644;2023-01-24T04:29:29;1.20;99.90
16076;DHT22;8142;48.242;11.644;2023-01-24T04:31:55;1.10;99.90
16076;DHT22;8142;48.242;11.644;2023-01-24T04:34:21;1.10;99.90
16076;DHT22;8142;48.242;11.644;2023-01-24T04:36:47;1.10;99.90
16076;DHT22;8142;48.242;11.644;2023-01-24T04:39:13;1.10;99.90
16076;DHT22;8142;48.242;11.644;2023-01-24T04:41:39;1.00;99.90
16076;DHT22;8142;48.242;11.644;2023-01-24T04:44:05;0.90;99.90
16076;DHT22;8142;48.242;11.644;2023-01-24T04:46:31;1.00;99.90
16076;DHT22;8142;48.242;11.644;2023-01-24T04:48:57;0.90;99.90
16076;DHT22;8142;48.242;11.644;2023-01-24T04:51:23;0.90;99.90
16076;DHT22;8142;48.242;11.644;2023-01-24T04:53:49;0.90;99.90
16076;DHT22;8142;48.242;11.644;2023-01-24T04:56:15;0.90;99.90
16076;DHT22;8142;48.242;11.644;2023-01-24T04:58:42;0.90;99.90
16076;DHT22;8142;48.242;11.644;2023-01-24T05:01:15;0.90;99.90
16076;DHT22;8142;48.242;11.644;2023-01-24T05:03:41;0.90;99.90
16076;DHT22;8142;48.242;11.644;2023-01-24T05:06:08;0.90;99.90
16076;DHT22;8142;48.242;11.644;2023-01-24T05:08:33;1.00;99.90
16076;DHT22;8142;48.242;11.644;2023-01-24T05:11:01;0.90;99.90
16076;DHT22;8142;48.242;11.644;2023-01-24T05:13:28;0.90;99.90
16076;DHT22;8142;48.242;11.644;2023-01-24T05:15:54;1.00;99.90
16076;DHT22;8142;48.242;11.644;2023-01-24T05:18:20;1.00;99.90
16076;DHT22;8142;48.242;11.644;2023-01-24T05:20:47;1.00;99.90
16076;DHT22;8142;48.242;11.644;2023-01-24T05:23:13;1.00;99.90
16076;DHT22;8142;48.242;11.644;2023-01-24T05:25:39;1.10;99.90
16076;DHT22;8142;48.242;11.644;2023-01-24T05:28:05;1.10;99.90
16076;DHT22;8142;48.242;11.644;2023-01-24T05:30:31;1.10;99.90
16076;DHT22;8142;48.242;11.644;2023-01-24T05:33:04;1.10;99.90
16076;DHT22;8142;48.242;11.644;2023-01-24T05:35:30;1.00;99.90
16076;DHT22;8142;48.242;11.644;2023-01-24T05:37:56;1.10;99.90
16076;DHT22;8142;48.242;11.644;2023-01-24T05:40:22;1.10;99.90
16076;DHT22;8142;48.242;11.644;2023-01-24T05:42:48;1.10;99.90
16076;DHT22;8142;48.242;11.644;2023-01-24T05:45:14;1.10;99.90
16076;DHT22;8142;48.242;11.644;2023-01-24T05:47:44;1.10;99.90
16076;DHT22;8142;48.242;11.644;2023-01-24T05:50:10;1.10;99.90
16076;DHT22;8142;48.242;11.644;2023-01-24T05:52:39;1.10;99.90
16076;DHT22;8142;48.242;11.644;2023-01-24T05:55:06;1.10;99.90
16076;DHT22;8142;48.242;11.644;2023-01-24T05:57:32;1.10;99.90
16076;DHT22;8142;48.242;11.644;2023-01-24T06:00:03;1.00;99.90
16076;DHT22;8142;48.242;11.644;2023-01-24T06:02:31;1.00;99.90
16076;DHT22;8142;48.242;11.644;2023-01-24T06:04:57;1.00;99.90
16076;DHT22;8142;48.242;11.644;2023-01-24T06:07:23;1.00;99.90
16076;DHT22;8142;48.242;11.644;2023-01-24T06:09:49;1.00;99.90
16076;DHT22;8142;48.242;11.644;2023-01-24T06:12:15;1.00;99.90
16076;DHT22;8142;48.242;11.644;2023-01-24T06:14:41;1.00;99.90
16076;DHT22;8142;48.242;11.644;2023-01-24T06:17:08;1.10;99.90
16076;DHT22;8142;48.242;11.644;2023-01-24T06:19:34;1.20;99.90
16076;DHT22;8142;48.242;11.644;2023-01-24T06:22:19;1.30;99.90
16076;DHT22;8142;48.242;11.644;2023-01-24T06:24:50;1.30;99.90
16076;DHT22;8142;48.242;11.644;2023-01-24T06:27:17;1.40;99.90
16076;DHT22;8142;48.242;11.644;2023-01-24T06:29:43;1.50;99.90
16076;DHT22;8142;48.242;11.644;2023-01-24T06:36:14;1.60;99.90
16076;DHT22;8142;48.242;11.644;2023-01-24T06:38:43;1.70;99.90
16076;DHT22;8142;48.242;11.644;2023-01-24T06:41:15;1.70;99.90
16076;DHT22;8142;48.242;11.644;2023-01-24T06:43:45;1.80;99.90
16076;DHT22;8142;48.242;11.644;2023-01-24T06:46:13;1.80;99.90
16076;DHT22;8142;48.242;11.644;2023-01-24T06:48:44;1.90;99.90
16076;DHT22;8142;48.242;11.644;2023-01-24T06:51:13;1.90;99.90
16076;DHT22;8142;48.242;11.644;2023-01-24T06:53:42;1.90;99.90
16076;DHT22;8142;48.242;11.644;2023-01-24T06:56:09;1.90;99.90
16076;DHT22;8142;48.242;11.644;2023-01-24T06:58:35;1.90;99.90
16076;DHT22;8142;48.242;11.644;2023-01-24T07:01:02;2.00;99.90
16076;DHT22;8142;48.242;11.644;2023-01-24T07:03:28;2.00;99.90
16076;DHT22;8142;48.242;11.644;2023-01-24T07:05:54;2.00;99.90
16076;DHT22;8142;48.242;11.644;2023-01-24T07:08:20;2.10;99.90
16076;DHT22;8142;48.242;11.644;2023-01-24T07:10:47;2.10;99.90
16076;DHT22;8142;48.242;11.644;2023-01-24T07:13:13;2.10;99.90
16076;DHT22;8142;48.242;11.644;2023-01-24T07:15:39;2.10;99.90
16076;DHT22;8142;48.242;11.644;2023-01-24T07:18:10;2.10;99.90
16076;DHT22;8142;48.242;11.644;2023-01-24T07:20:37;2.10;99.90
16076;DHT22;8142;48.242;11.644;2023-01-24T07:23:04;2.10;99.90
16076;DHT22;8142;48.242;11.644;2023-01-24T07:25:31;2.20;99.90
16076;DHT22;8142;48.242;11.644;2023-01-24T07:27:58;2.20;99.90
16076;DHT22;8142;48.242;11.644;2023-01-24T07:30:24;2.20;99.90
16076;DHT22;8142;48.242;11.644;2023-01-24T07:32:51;2.20;99.90
16076;DHT22;8142;48.242;11.644;2023-01-24T07:35:17;2.20;99.90
16076;DHT22;8142;48.242;11.644;2023-01-24T07:37:43;2.30;99.90
16076;DHT22;8142;48.242;11.644;2023-01-24T07:40:10;2.30;99.90
16076;DHT22;8142;48.242;11.644;2023-01-24T07:42:39;2.30;99.90
16076;DHT22;8142;48.242;11.644;2023-01-24T07:45:06;2.30;99.90
16076;DHT22;8142;48.242;11.644;2023-01-24T07:47:32;2.30;99.90
16076;DHT22;8142;48.242;11.644;2023-01-24T07:49:59;2.30;99.90
16076;DHT22;8142;48.242;11.644;2023-01-24T07:52:26;2.40;99.90
16076;DHT22;8142;48.242;11.644;2023-01-24T07:54:52;2.30;99.90
16076;DHT22;8142;48.242;11.644;2023-01-24T07:57:18;2.40;99.90
16076;DHT22;8142;48.242;11.644;2023-01-24T07:59:44;2.40;99.90
16076;DHT22;8142;48.242;11.644;2023-01-24T08:02:11;2.40;99.90
16076;DHT22;8142;48.242;11.644;2023-01-24T08:04:38;2.30;99.90
16076;DHT22;8142;48.242;11.644;2023-01-24T08:07:05;2.40;99.90
16076;DHT22;8142;48.242;11.644;2023-01-24T08:09:44;2.40;99.90
16076;DHT22;8142;48.242;11.644;2023-01-24T08:12:10;2.40;99.90
16076;DHT22;8142;48.242;11.644;2023-01-24T08:14:37;2.40;99.90
16076;DHT22;8142;48.242;11.644;2023-01-24T08:17:04;2.40;99.90
16076;DHT22;8142;48.242;11.644;2023-01-24T08:19:31;2.40;99.90
16076;DHT22;8142;48.242;11.644;2023-01-24T08:21:57;2.40;99.90
16076;DHT22;8142;48.242;11.644;2023-01-24T08:24:23;2.50;99.90
16076;DHT22;8142;48.242;11.644;2023-01-24T08:26:50;2.40;99.90
16076;DHT22;8142;48.242;11.644;2023-01-24T08:29:17;2.50;99.90
16076;DHT22;8142;48.242;11.644;2023-01-24T08:31:43;2.40;99.90
16076;DHT22;8142;48.242;11.644;2023-01-24T08:34:10;2.50;99.90
16076;DHT22;8142;48.242;11.644;2023-01-24T08:36:36;2.40;99.90
16076;DHT22;8142;48.242;11.644;2023-01-24T08:39:03;2.50;99.90
16076;DHT22;8142;48.242;11.644;2023-01-24T08:41:30;2.50;99.90
16076;DHT22;8142;48.242;11.644;2023-01-24T08:43:56;2.40;99.90
16076;DHT22;8142;48.242;11.644;2023-01-24T08:46:22;2.50;99.90
16076;DHT22;8142;48.242;11.644;2023-01-24T08:48:48;2.50;99.90
16076;DHT22;8142;48.242;11.644;2023-01-24T08:51:14;2.50;99.90
16076;DHT22;8142;48.242;11.644;2023-01-24T08:53:40;2.50;99.90
16076;DHT22;8142;48.242;11.644;2023-01-24T08:56:07;2.50;99.90
16076;DHT22;8142;48.242;11.644;2023-01-24T08:58:33;2.50;99.90
16076;DHT22;8142;48.242;11.644;2023-01-24T09:01:00;2.50;99.90
16076;DHT22;8142;48.242;11.644;2023-01-24T09:03:26;2.50;99.90
16076;DHT22;8142;48.242;11.644;2023-01-24T09:05:56;2.50;99.90
16076;DHT22;8142;48.242;11.644;2023-01-24T09:08:25;2.60;99.90
16076;DHT22;8142;48.242;11.644;2023-01-24T09:10:52;2.60;99.90
16076;DHT22;8142;48.242;11.644;2023-01-24T09:13:18;2.60;99.90
16076;DHT22;8142;48.242;11.644;2023-01-24T09:15:44;2.60;99.90
16076;DHT22;8142;48.242;11.644;2023-01-24T09:18:10;2.60;99.90
16076;DHT22;8142;48.242;11.644;2023-01-24T09:20:36;2.60;99.90
16076;DHT22;8142;48.242;11.644;2023-01-24T09:23:12;2.60;99.90
16076;DHT22;8142;48.242;11.644;2023-01-24T09:25:40;2.60;99.90
16076;DHT22;8142;48.242;11.644;2023-01-24T09:28:07;2.60;99.90
16076;DHT22;8142;48.242;11.644;2023-01-24T09:30:34;2.60;99.90
16076;DHT22;8142;48.242;11.644;2023-01-24T09:33:06;2.60;99.90
16076;DHT22;8142;48.242;11.644;2023-01-24T09:35:32;2.60;99.90
16076;DHT22;8142;48.242;11.644;2023-01-24T09:37:58;2.60;99.90
16076;DHT22;8142;48.242;11.644;2023-01-24T09:40:40;2.60;99.90
16076;DHT22;8142;48.242;11.644;2023-01-24T09:46:04;2.70;99.90
16076;DHT22;8142;48.242;11.644;2023-01-24T09:48:34;2.70;99.90
16076;DHT22;8142;48.242;11.644;2023-01-24T09:51:14;2.70;99.90
16076;DHT22;8142;48.242;11.644;2023-01-24T09:53:44;2.70;99.90
16076;DHT22;8142;48.242;11.644;2023-01-24T09:56:25;2.90;99.90
16076;DHT22;8142;48.242;11.644;2023-01-24T10:01:48;2.70;99.90
16076;DHT22;8142;48.242;11.644;2023-01-24T10:04:30;2.60;99.90
16076;DHT22;8142;48.242;11.644;2023-01-24T10:07:06;2.50;99.90
16076;DHT22;8142;48.242;11.644;2023-01-24T10:23:26;2.20;99.90
16076;DHT22;8142;48.242;11.644;2023-01-24T10:25:56;2.30;99.90
16076;DHT22;8142;48.242;11.644;2023-01-24T10:28:36;2.30;99.90
16076;DHT22;8142;48.242;11.644;2023-01-24T10:31:27;2.40;99.90
16076;DHT22;8142;48.242;11.644;2023-01-24T10:34:14;2.40;99.90
16076;DHT22;8142;48.242;11.644;2023-01-24T10:36:51;2.50;99.90
16076;DHT22;8142;48.242;11.644;2023-01-24T10:39:19;2.50;99.90
16076;DHT22;8142;48.242;11.644;2023-01-24T10:41:44;2.60;99.90
16076;DHT22;8142;48.242;11.644;2023-01-24T10:49:36;2.70;99.90
16076;DHT22;8142;48.242;11.644;2023-01-24T10:54:54;2.80;99.90
16076;DHT22;8142;48.242;11.644;2023-01-24T10:59:50;2.80;99.90
16076;DHT22;8142;48.242;11.644;2023-01-24T11:02:22;2.90;99.90
16076;DHT22;8142;48.242;11.644;2023-01-24T11:05:00;2.90;99.90
16076;DHT22;8142;48.242;11.644;2023-01-24T11:07:29;2.90;99.90
16076;DHT22;8142;48.242;11.644;2023-01-24T11:09:59;2.90;99.90
16076;DHT22;8142;48.242;11.644;2023-01-24T11:12:26;3.00;99.90
16076;DHT22;8142;48.242;11.644;2023-01-24T11:14:52;3.00;99.90
16076;DHT22;8142;48.242;11.644;2023-01-24T11:17:32;3.00;99.90
16076;DHT22;8142;48.242;11.644;2023-01-24T11:20:31;3.10;99.90
16076;DHT22;8142;48.242;11.644;2023-01-24T11:23:06;3.10;99.90
16076;DHT22;8142;48.242;11.644;2023-01-24T11:25:36;3.10;99.90
16076;DHT22;8142;48.242;11.644;2023-01-24T11:28:01;3.10;99.90
16076;DHT22;8142;48.242;11.644;2023-01-24T11:30:28;3.10;99.90
16076;DHT22;8142;48.242;11.644;2023-01-24T11:33:23;3.10;99.90
16076;DHT22;8142;48.242;11.644;2023-01-24T11:36:06;3.20;99.90
16076;DHT22;8142;48.242;11.644;2023-01-24T11:38:42;3.20;99.90
16076;DHT22;8142;48.242;11.644;2023-01-24T11:49:28;3.30;99.90
16076;DHT22;8142;48.242;11.644;2023-01-24T11:52:20;3.30;99.90
16076;DHT22;8142;48.242;11.644;2023-01-24T11:55:07;3.30;99.90
16076;DHT22;8142;48.242;11.644;2023-01-24T12:01:02;3.30;99.90
16076;DHT22;8142;48.242;11.644;2023-01-24T12:06:26;3.30;99.90
16076;DHT22;8142;48.242;11.644;2023-01-24T12:11:44;3.30;99.90
16076;DHT22;8142;48.242;11.644;2023-01-24T12:22:23;3.30;99.90
16076;DHT22;8142;48.242;11.644;2023-01-24T12:25:03;3.30;99.90
16076;DHT22;8142;48.242;11.644;2023-01-24T12:27:35;3.30;99.90
16076;DHT22;8142;48.242;11.644;2023-01-24T12:30:06;3.30;99.90
16076;DHT22;8142;48.242;11.644;2023-01-24T12:32:52;3.30;99.90
16076;DHT22;8142;48.242;11.644;2023-01-24T12:35:29;3.30;99.90
16076;DHT22;8142;48.242;11.644;2023-01-24T12:39:03;3.30;99.90
16076;DHT22;8142;48.242;11.644;2023-01-24T12:43:49;3.30;99.90
16076;DHT22;8142;48.242;11.644;2023-01-24T12:46:36;3.30;99.90
16076;DHT22;8142;48.242;11.644;2023-01-24T12:49:25;3.40;99.90
16076;DHT22;8142;48.242;11.644;2023-01-24T12:55:14;3.40;99.90
16076;DHT22;8142;48.242;11.644;2023-01-24T12:58:01;3.40;99.90
16076;DHT22;8142;48.242;11.644;2023-01-24T13:03:30;3.40;99.90
16076;DHT22;8142;48.242;11.644;2023-01-24T13:11:55;3.40;99.90
16076;DHT22;8142;48.242;11.644;2023-01-24T13:22:48;3.40;99.90
16076;DHT22;8142;48.242;11.644;2023-01-24T13:33:56;3.50;99.90
16076;DHT22;8142;48.242;11.644;2023-01-24T13:36:49;3.40;99.90
16076;DHT22;8142;48.242;11.644;2023-01-24T13:39:37;3.40;99.90
16076;DHT22;8142;48.242;11.644;2023-01-24T13:42:19;3.40;99.90
16076;DHT22;8142;48.242;11.644;2023-01-24T13:44:46;3.40;99.90
16076;DHT22;8142;48.242;11.644;2023-01-24T13:50:09;3.50;99.90
16076;DHT22;8142;48.242;11.644;2023-01-24T13:52:39;3.50;99.90
16076;DHT22;8142;48.242;11.644;2023-01-24T14:00:35;3.50;99.90
16076;DHT22;8142;48.242;11.644;2023-01-24T14:03:28;3.50;99.90
16076;DHT22;8142;48.242;11.644;2023-01-24T14:09:03;3.40;99.90
16076;DHT22;8142;48.242;11.644;2023-01-24T14:11:35;3.40;99.90
16076;DHT22;8142;48.242;11.644;2023-01-24T14:14:29;3.40;99.90
16076;DHT22;8142;48.242;11.644;2023-01-24T14:17:02;3.40;99.90
16076;DHT22;8142;48.242;11.644;2023-01-24T14:19:35;3.40;99.90
16076;DHT22;8142;48.242;11.644;2023-01-24T14:32:50;3.40;99.90
16076;DHT22;8142;48.242;11.644;2023-01-24T14:35:28;3.40;99.90
16076;DHT22;8142;48.242;11.644;2023-01-24T14:38:16;3.30;99.90
16076;DHT22;8142;48.242;11.644;2023-01-24T14:40:48;3.40;99.90
16076;DHT22;8142;48.242;11.644;2023-01-24T14:43:15;3.40;99.90
16076;DHT22;8142;48.242;11.644;2023-01-24T14:45:42;3.40;99.90
16076;DHT22;8142;48.242;11.644;2023-01-24T14:48:15;3.40;99.90
16076;DHT22;8142;48.242;11.644;2023-01-24T14:50:42;3.40;99.90
16076;DHT22;8142;48.242;11.644;2023-01-24T14:53:27;3.30;99.90
16076;DHT22;8142;48.242;11.644;2023-01-24T14:55:56;3.40;99.90
16076;DHT22;8142;48.242;11.644;2023-01-24T14:58:27;3.30;99.90
16076;DHT22;8142;48.242;11.644;2023-01-24T15:00:59;3.40;99.90
16076;DHT22;8142;48.242;11.644;2023-01-24T15:03:33;3.40;99.90
16076;DHT22;8142;48.242;11.644;2023-01-24T15:06:16;3.40;99.90
16076;DHT22;8142;48.242;11.644;2023-01-24T15:08:43;3.40;99.90
16076;DHT22;8142;48.242;11.644;2023-01-24T15:11:30;3.40;99.90
16076;DHT22;8142;48.242;11.644;2023-01-24T15:14:34;3.50;99.90
16076;DHT22;8142;48.242;11.644;2023-01-24T15:16:56;3.40;99.90
16076;DHT22;8142;48.242;11.644;2023-01-24T15:19:25;3.50;99.90
16076;DHT22;8142;48.242;11.644;2023-01-24T15:21:54;3.50;99.90
16076;DHT22;8142;48.242;11.644;2023-01-24T15:24:29;3.40;99.90
16076;DHT22;8142;48.242;11.644;2023-01-24T15:26:57;3.50;99.90
16076;DHT22;8142;48.242;11.644;2023-01-24T15:29:46;3.50;99.90
16076;DHT22;8142;48.242;11.644;2023-01-24T15:38:43;3.50;99.90
16076;DHT22;8142;48.242;11.644;2023-01-24T15:41:13;3.50;99.90
16076;DHT22;8142;48.242;11.644;2023-01-24T15:44:01;3.50;99.90
16076;DHT22;8142;48.242;11.644;2023-01-24T15:46:38;3.50;99.90
16076;DHT22;8142;48.242;11.644;2023-01-24T15:49:38;3.50;99.90
16076;DHT22;8142;48.242;11.644;2023-01-24T15:52:17;3.50;99.90
16076;DHT22;8142;48.242;11.644;2023-01-24T15:54:52;3.50;99.90
16076;DHT22;8142;48.242;11.644;2023-01-24T15:57:22;3.50;99.90
16076;DHT22;8142;48.242;11.644;2023-01-24T15:59:58;3.50;99.90
16076;DHT22;8142;48.242;11.644;2023-01-24T16:02:24;3.50;99.90
16076;DHT22;8142;48.242;11.644;2023-01-24T16:04:51;3.50;99.90
16076;DHT22;8142;48.242;11.644;2023-01-24T16:07:20;3.40;99.90
16076;DHT22;8142;48.242;11.644;2023-01-24T16:09:47;3.30;99.90
16076;DHT22;8142;48.242;11.644;2023-01-24T16:12:16;3.20;99.90
16076;DHT22;8142;48.242;11.644;2023-01-24T16:14:52;3.10;99.90
16076;DHT22;8142;48.242;11.644;2023-01-24T16:17:19;2.90;99.90
16076;DHT22;8142;48.242;11.644;2023-01-24T16:19:47;2.80;99.90
16076;DHT22;8142;48.242;11.644;2023-01-24T16:22:13;2.80;99.90
16076;DHT22;8142;48.242;11.644;2023-01-24T16:24:39;2.70;99.90
16076;DHT22;8142;48.242;11.644;2023-01-24T16:27:05;2.60;99.90
16076;DHT22;8142;48.242;11.644;2023-01-24T16:29:33;2.50;99.90
16076;DHT22;8142;48.242;11.644;2023-01-24T16:31:59;2.50;99.90
16076;DHT22;8142;48.242;11.644;2023-01-24T16:34:25;2.50;99.90
16076;DHT22;8142;48.242;11.644;2023-01-24T16:37:00;2.40;99.90
16076;DHT22;8142;48.242;11.644;2023-01-24T16:39:29;2.30;99.90
16076;DHT22;8142;48.242;11.644;2023-01-24T16:41:54;2.30;99.90
16076;DHT22;8142;48.242;11.644;2023-01-24T16:44:20;2.30;99.90
16076;DHT22;8142;48.242;11.644;2023-01-24T16:46:48;2.30;99.90
16076;DHT22;8142;48.242;11.644;2023-01-24T16:49:15;2.30;99.90
16076;DHT22;8142;48.242;11.644;2023-01-24T16:51:43;2.30;99.90
16076;DHT22;8142;48.242;11.644;2023-01-24T16:54:09;2.30;99.90
16076;DHT22;8142;48.242;11.644;2023-01-24T16:56:36;2.30;99.90
16076;DHT22;8142;48.242;11.644;2023-01-24T16:59:02;2.30;99.90
16076;DHT22;8142;48.242;11.644;2023-01-24T17:01:39;2.30;99.90
16076;DHT22;8142;48.242;11.644;2023-01-24T17:04:06;2.20;99.90
16076;DHT22;8142;48.242;11.644;2023-01-24T17:06:32;2.20;99.90
16076;DHT22;8142;48.242;11.644;2023-01-24T17:08:58;2.20;99.90
16076;DHT22;8142;48.242;11.644;2023-01-24T17:11:24;2.20;99.90
16076;DHT22;8142;48.242;11.644;2023-01-24T17:13:50;2.10;99.90
16076;DHT22;8142;48.242;11.644;2023-01-24T17:16:17;2.10;99.90
16076;DHT22;8142;48.242;11.644;2023-01-24T17:18:43;2.20;99.90
16076;DHT22;8142;48.242;11.644;2023-01-24T17:21:12;2.10;99.90
16076;DHT22;8142;48.242;11.644;2023-01-24T17:23:39;2.10;99.90
16076;DHT22;8142;48.242;11.644;2023-01-24T17:26:13;2.10;99.90
16076;DHT22;8142;48.242;11.644;2023-01-24T17:28:41;2.00;99.90
16076;DHT22;8142;48.242;11.644;2023-01-24T17:31:13;2.10;99.90
16076;DHT22;8142;48.242;11.644;2023-01-24T17:33:40;2.10;99.90
16076;DHT22;8142;48.242;11.644;2023-01-24T17:36:07;2.10;99.90
16076;DHT22;8142;48.242;11.644;2023-01-24T17:38:34;2.20;99.90
16076;DHT22;8142;48.242;11.644;2023-01-24T17:41:00;2.20;99.90
16076;DHT22;8142;48.242;11.644;2023-01-24T17:43:28;2.20;99.90
16076;DHT22;8142;48.242;11.644;2023-01-24T17:45:56;2.20;99.90
16076;DHT22;8142;48.242;11.644;2023-01-24T17:48:23;2.20;99.90
16076;DHT22;8142;48.242;11.644;2023-01-24T17:50:49;2.20;99.90
16076;DHT22;8142;48.242;11.644;2023-01-24T17:53:16;2.10;99.90
16076;DHT22;8142;48.242;11.644;2023-01-24T17:55:42;2.10;99.90
16076;DHT22;8142;48.242;11.644;2023-01-24T17:58:09;2.10;99.90
16076;DHT22;8142;48.242;11.644;2023-01-24T18:00:36;2.10;99.90
16076;DHT22;8142;48.242;11.644;2023-01-24T18:03:02;2.00;99.90
16076;DHT22;8142;48.242;11.644;2023-01-24T18:05:28;2.00;99.90
16076;DHT22;8142;48.242;11.644;2023-01-24T18:07:54;2.10;99.90
16076;DHT22;8142;48.242;11.644;2023-01-24T18:10:20;2.00;99.90
16076;DHT22;8142;48.242;11.644;2023-01-24T18:12:47;2.00;99.90
16076;DHT22;8142;48.242;11.644;2023-01-24T18:15:13;2.00;99.90